sensor_id;sensor_type;location;lat;lon;timestamp;pressure;altitude;pressure_sealevel;temperature;humidity
76815;BME280;65768;49.906;19.384;2023-12-28T21:40:08;98249.00;;;9.42;67.69
76815;BME280;65768;49.906;19.384;2023-12-28T21:42:37;98245.93;;;10.80;62.29
76815;BME280;65768;49.906;19.384;2023-12-28T21:45:09;98231.80;;;10.76;62.39
76815;BME280;65768;49.906;19.384;2023-12-28T21:47:38;98248.20;;;10.74;63.21
76815;BME280;65768;49.906;19.384;2023-12-28T21:50:07;98254.12;;;10.61;63.67
76815;BME280;65768;49.906;19.384;2023-12-28T21:52:35;98255.64;;;10.44;64.31
76815;BME280;65768;49.906;19.384;2023-12-28T21:55:04;98252.63;;;10.17;65.12
76815;BME280;65768;49.906;19.384;2023-12-28T21:57:32;98253.02;;;9.85;66.68
76815;BME280;65768;49.906;19.384;2023-12-28T22:00:03;98246.81;;;9.97;66.48
76815;BME280;65768;49.906;19.384;2023-12-28T22:02:32;98238.14;;;10.08;65.77
76815;BME280;65768;49.906;19.384;2023-12-28T22:05:00;98245.44;;;10.05;66.18
76815;BME280;65768;49.906;19.384;2023-12-28T22:07:28;98237.46;;;10.17;65.59
76815;BME280;65768;49.906;19.384;2023-12-28T22:09:57;98232.34;;;9.89;66.11
76815;BME280;65768;49.906;19.384;2023-12-28T22:12:25;98230.77;;;9.91;66.10
76815;BME280;65768;49.906;19.384;2023-12-28T22:14:54;98221.91;;;9.96;66.37
76815;BME280;65768;49.906;19.384;2023-12-28T22:17:22;98221.56;;;10.00;66.09
76815;BME280;65768;49.906;19.384;2023-12-28T22:19:50;98223.17;;;10.09;65.54
76815;BME280;65768;49.906;19.384;2023-12-28T22:22:19;98225.77;;;10.15;65.18
76815;BME280;65768;49.906;19.384;2023-12-28T22:24:50;98232.75;;;10.17;65.35
76815;BME280;65768;49.906;19.384;2023-12-28T22:27:18;98230.66;;;10.16;65.66
76815;BME280;65768;49.906;19.384;2023-12-28T22:29:46;98231.52;;;10.11;65.71
76815;BME280;65768;49.906;19.384;2023-12-28T22:32:15;98234.63;;;9.97;66.21
76815;BME280;65768;49.906;19.384;2023-12-28T22:34:45;98236.81;;;9.76;67.15
76815;BME280;65768;49.906;19.384;2023-12-28T22:37:13;98235.46;;;9.90;66.54
76815;BME280;65768;49.906;19.384;2023-12-28T22:39:41;98241.91;;;9.92;66.64
76815;BME280;65768;49.906;19.384;2023-12-28T22:42:11;98245.91;;;9.89;66.74
76815;BME280;65768;49.906;19.384;2023-12-28T22:44:39;98247.16;;;10.00;66.85
76815;BME280;65768;49.906;19.384;2023-12-28T22:47:08;98244.71;;;9.94;67.88
76815;BME280;65768;49.906;19.384;2023-12-28T22:49:36;98243.02;;;10.06;67.50
76815;BME280;65768;49.906;19.384;2023-12-28T22:52:05;98244.08;;;10.12;67.31
76815;BME280;65768;49.906;19.384;2023-12-28T22:54:33;98248.23;;;10.07;67.30
76815;BME280;65768;49.906;19.384;2023-12-28T22:57:02;98246.38;;;10.24;67.44
76815;BME280;65768;49.906;19.384;2023-12-28T22:59:30;98240.31;;;10.35;67.49
76815;BME280;65768;49.906;19.384;2023-12-28T23:02:00;98235.23;;;10.29;67.69
76815;BME280;65768;49.906;19.384;2023-12-28T23:04:28;98236.29;;;10.27;67.20
76815;BME280;65768;49.906;19.384;2023-12-28T23:06:56;98239.79;;;10.33;67.49
76815;BME280;65768;49.906;19.384;2023-12-28T23:09:24;98235.97;;;10.41;66.59
76815;BME280;65768;49.906;19.384;2023-12-28T23:11:53;98232.14;;;10.59;66.01
76815;BME280;65768;49.906;19.384;2023-12-28T23:14:22;98240.17;;;10.60;66.19
76815;BME280;65768;49.906;19.384;2023-12-28T23:16:51;98229.17;;;10.59;66.06
76815;BME280;65768;49.906;19.384;2023-12-28T23:19:19;98223.96;;;10.56;66.11
76815;BME280;65768;49.906;19.384;2023-12-28T23:21:48;98221.33;;;10.49;66.73
76815;BME280;65768;49.906;19.384;2023-12-28T23:24:16;98217.68;;;10.46;66.52
76815;BME280;65768;49.906;19.384;2023-12-28T23:26:45;98218.04;;;10.48;66.29
76815;BME280;65768;49.906;19.384;2023-12-28T23:29:14;98212.45;;;10.52;66.60
76815;BME280;65768;49.906;19.384;2023-12-28T23:31:42;98216.09;;;10.53;66.69
76815;BME280;65768;49.906;19.384;2023-12-28T23:34:10;98220.46;;;10.40;67.04
76815;BME280;65768;49.906;19.384;2023-12-28T23:36:38;98227.42;;;10.38;67.06
76815;BME280;65768;49.906;19.384;2023-12-28T23:39:06;98230.58;;;10.45;66.79
76815;BME280;65768;49.906;19.384;2023-12-28T23:41:37;98231.44;;;10.40;66.37
76815;BME280;65768;49.906;19.384;2023-12-28T23:44:05;98231.09;;;10.43;66.65
76815;BME280;65768;49.906;19.384;2023-12-28T23:46:37;98229.34;;;10.42;66.30
76815;BME280;65768;49.906;19.384;2023-12-28T23:49:06;98229.17;;;10.51;65.82
76815;BME280;65768;49.906;19.384;2023-12-28T23:51:35;98234.23;;;10.56;66.51
76815;BME280;65768;49.906;19.384;2023-12-28T23:54:04;98231.80;;;10.51;66.56
76815;BME280;65768;49.906;19.384;2023-12-28T23:56:33;98231.98;;;10.44;66.89
76815;BME280;65768;49.906;19.384;2023-12-28T23:59:01;98225.35;;;10.50;66.80
